createdAt,value
2023-02-18T00:01:30.599Z,7.80
2023-02-18T00:03:58.782Z,7.70
2023-02-18T00:06:31.761Z,7.70
2023-02-18T00:09:02.014Z,7.80
2023-02-18T00:11:31.665Z,7.80
2023-02-18T00:14:01.511Z,7.80
2023-02-18T00:16:29.623Z,7.80
2023-02-18T00:18:59.149Z,7.80
2023-02-18T00:21:26.617Z,7.90
2023-02-18T00:23:53.523Z,7.90
2023-02-18T00:26:20.530Z,7.90
2023-02-18T00:28:48.595Z,7.90
2023-02-18T00:31:27.271Z,8.00
2023-02-18T00:33:54.862Z,7.90
2023-02-18T00:36:22.959Z,7.90
2023-02-18T00:38:54.630Z,7.90
2023-02-18T00:41:23.365Z,7.90
2023-02-18T00:43:50.469Z,7.90
2023-02-18T00:46:17.342Z,7.90
2023-02-18T00:48:44.624Z,7.90
2023-02-18T00:51:12.370Z,7.90
2023-02-18T00:53:40.038Z,7.90
2023-02-18T00:56:07.983Z,7.90
2023-02-18T00:58:36.152Z,7.90
2023-02-18T01:01:06.331Z,7.90
2023-02-18T01:03:34.421Z,7.90
2023-02-18T01:06:01.424Z,7.90
2023-02-18T01:08:28.354Z,7.90
2023-02-18T01:10:57.485Z,7.90
2023-02-18T01:13:25.342Z,7.90
2023-02-18T01:15:53.122Z,7.90
2023-02-18T01:18:21.091Z,7.90
2023-02-18T01:20:48.375Z,7.90
2023-02-18T01:23:16.395Z,7.90
2023-02-18T01:25:43.321Z,8.00
2023-02-18T01:28:12.870Z,8.00
2023-02-18T01:30:40.730Z,8.00
2023-02-18T01:33:08.017Z,8.10
2023-02-18T01:35:37.468Z,8.10
2023-02-18T01:38:04.356Z,8.10
2023-02-18T01:40:31.409Z,8.10
2023-02-18T01:42:58.259Z,8.20
2023-02-18T01:45:34.336Z,8.20
2023-02-18T01:48:27.647Z,8.20
2023-02-18T01:51:00.144Z,8.10
2023-02-18T01:53:33.181Z,8.10
2023-02-18T01:56:03.731Z,8.10
2023-02-18T01:58:31.495Z,8.10
2023-02-18T02:00:58.416Z,8.10
2023-02-18T02:03:25.311Z,8.20
2023-02-18T02:05:52.098Z,8.10
2023-02-18T02:08:18.982Z,8.20
2023-02-18T02:11:06.587Z,8.20
2023-02-18T02:14:04.528Z,8.20
2023-02-18T02:16:34.204Z,8.20
2023-02-18T02:19:10.239Z,8.20
2023-02-18T02:22:05.129Z,8.20
2023-02-18T02:24:50.573Z,8.20
2023-02-18T02:27:41.556Z,8.30
2023-02-18T02:30:26.467Z,8.30
2023-02-18T02:33:15.032Z,8.30
2023-02-18T02:36:07.062Z,8.40
2023-02-18T02:38:57.074Z,8.40
2023-02-18T02:41:31.726Z,8.30
2023-02-18T02:44:22.452Z,8.40
2023-02-18T02:46:54.029Z,8.40
2023-02-18T02:49:26.690Z,8.40
2023-02-18T02:51:53.430Z,8.40
2023-02-18T02:54:25.356Z,8.50
2023-02-18T02:57:27.982Z,8.50
2023-02-18T03:00:03.494Z,8.40
2023-02-18T03:02:39.516Z,8.50
2023-02-18T03:05:32.503Z,8.40
2023-02-18T03:08:30.578Z,8.50
2023-02-18T03:11:05.629Z,8.40
2023-02-18T03:13:38.304Z,8.40
2023-02-18T03:16:27.189Z,8.40
2023-02-18T03:19:24.106Z,8.50
2023-02-18T03:22:06.590Z,8.50
2023-02-18T03:24:46.640Z,8.50
2023-02-18T03:27:18.717Z,8.60
2023-02-18T03:29:49.369Z,8.60
2023-02-18T03:32:18.868Z,8.60
2023-02-18T03:34:50.665Z,8.60
2023-02-18T03:37:18.679Z,8.60
2023-02-18T03:39:49.983Z,8.70
2023-02-18T03:42:18.720Z,8.80
2023-02-18T03:44:45.608Z,8.80
2023-02-18T03:47:12.825Z,8.90
2023-02-18T03:49:39.823Z,8.80
2023-02-18T03:52:06.653Z,8.90
2023-02-18T03:54:33.464Z,8.80
2023-02-18T03:57:00.281Z,8.80
2023-02-18T03:59:27.131Z,8.80
2023-02-18T04:01:53.984Z,8.90
2023-02-18T04:04:20.886Z,8.80
2023-02-18T04:06:47.836Z,9.10
2023-02-18T04:09:14.665Z,8.90
2023-02-18T04:11:41.711Z,8.90
2023-02-18T04:14:09.091Z,8.90
2023-02-18T04:16:36.129Z,8.90
2023-02-18T04:19:03.088Z,8.90
2023-02-18T04:21:29.954Z,8.90
2023-02-18T04:23:56.782Z,8.90
2023-02-18T04:26:23.865Z,8.90
2023-02-18T04:28:50.633Z,8.90
2023-02-18T04:31:17.620Z,8.90
2023-02-18T04:33:44.574Z,8.90
2023-02-18T04:36:11.477Z,8.90
2023-02-18T04:38:38.287Z,8.90
2023-02-18T04:41:05.376Z,9.00
2023-02-18T04:43:32.218Z,9.00
2023-02-18T04:45:59.038Z,9.00
2023-02-18T04:48:25.895Z,9.00
2023-02-18T04:50:52.721Z,9.00
2023-02-18T04:53:19.516Z,9.10
2023-02-18T04:55:54.328Z,9.10
2023-02-18T04:58:21.623Z,9.10
2023-02-18T05:00:48.679Z,9.10
2023-02-18T05:03:15.577Z,9.10
2023-02-18T05:05:42.544Z,9.10
2023-02-18T05:08:09.658Z,9.10
2023-02-18T05:10:38.547Z,9.10
2023-02-18T05:13:05.596Z,9.10
2023-02-18T05:15:32.598Z,9.10
2023-02-18T05:17:59.503Z,9.20
2023-02-18T05:20:26.363Z,9.20
2023-02-18T05:22:53.198Z,9.10
2023-02-18T05:25:20.087Z,9.10
2023-02-18T05:27:46.905Z,9.10
2023-02-18T05:30:14.327Z,9.10
2023-02-18T05:32:41.775Z,9.10
2023-02-18T05:35:09.149Z,9.00
2023-02-18T05:37:35.991Z,9.10
2023-02-18T05:40:04.261Z,9.10
2023-02-18T05:42:32.905Z,9.10
2023-02-18T05:44:59.909Z,9.10
2023-02-18T05:47:26.738Z,9.00
2023-02-18T05:49:53.586Z,9.00
2023-02-18T05:52:20.416Z,9.00
2023-02-18T05:54:47.482Z,9.10
2023-02-18T05:57:15.391Z,9.10
2023-02-18T05:59:42.327Z,9.10
2023-02-18T06:02:09.273Z,9.10
2023-02-18T06:04:36.172Z,9.10
2023-02-18T06:07:03.311Z,9.10
2023-02-18T06:09:30.141Z,9.10
2023-02-18T06:11:57.137Z,9.10
2023-02-18T06:14:24.009Z,9.10
2023-02-18T06:16:50.855Z,9.10
2023-02-18T06:19:17.811Z,9.10
2023-02-18T06:21:44.705Z,9.10
2023-02-18T06:24:11.668Z,9.10
2023-02-18T06:26:38.545Z,9.20
2023-02-18T06:29:05.458Z,9.20
2023-02-18T06:31:32.536Z,9.20
2023-02-18T06:33:59.457Z,9.20
2023-02-18T06:36:26.304Z,9.30
2023-02-18T06:38:54.854Z,9.30
2023-02-18T06:41:21.657Z,9.30
2023-02-18T06:43:48.530Z,9.30
2023-02-18T06:46:15.467Z,9.30
2023-02-18T06:48:42.386Z,9.30
2023-02-18T06:51:09.255Z,9.40
2023-02-18T06:53:36.062Z,9.50
2023-02-18T06:56:02.877Z,9.40
2023-02-18T06:58:29.632Z,9.40
2023-02-18T07:00:56.633Z,9.40
2023-02-18T07:03:23.519Z,9.30
2023-02-18T07:05:50.496Z,9.40
2023-02-18T07:08:17.923Z,9.40
2023-02-18T07:10:44.810Z,9.40
2023-02-18T07:13:11.792Z,9.50
2023-02-18T07:15:38.886Z,9.50
2023-02-18T07:18:05.782Z,9.50
2023-02-18T07:20:32.811Z,9.50
2023-02-18T07:22:59.773Z,9.60
2023-02-18T07:25:26.720Z,9.60
2023-02-18T07:27:53.616Z,9.60
2023-02-18T07:30:20.809Z,9.70
2023-02-18T07:32:47.888Z,9.60
2023-02-18T07:35:16.512Z,9.60
2023-02-18T07:37:48.083Z,9.60
2023-02-18T07:40:21.174Z,9.60
2023-02-18T07:42:48.467Z,9.60
2023-02-18T07:45:15.897Z,9.70
2023-02-18T07:47:42.755Z,9.70
2023-02-18T07:50:10.707Z,9.70
2023-02-18T07:52:37.728Z,9.70
2023-02-18T07:55:04.966Z,9.70
2023-02-18T07:57:31.871Z,9.70
2023-02-18T07:59:58.750Z,9.70
2023-02-18T08:02:25.743Z,9.70
2023-02-18T08:04:52.641Z,9.70
2023-02-18T08:07:22.896Z,9.70
2023-02-18T08:09:50.754Z,9.70
2023-02-18T08:12:18.250Z,9.70
2023-02-18T08:14:45.094Z,9.70
2023-02-18T08:17:11.991Z,9.70
2023-02-18T08:19:38.830Z,9.70
2023-02-18T08:22:05.801Z,9.70
2023-02-18T08:24:32.749Z,9.70
2023-02-18T08:27:01.376Z,9.70
2023-02-18T08:29:29.510Z,9.70
2023-02-18T08:31:58.514Z,9.80
2023-02-18T08:34:26.143Z,9.80
2023-02-18T08:36:53.104Z,9.80
2023-02-18T08:39:20.091Z,9.80
2023-02-18T08:41:47.221Z,9.80
2023-02-18T08:44:14.260Z,9.80
2023-02-18T08:46:41.161Z,9.90
2023-02-18T08:49:08.062Z,9.90
2023-02-18T08:51:35.543Z,9.90
2023-02-18T08:54:02.402Z,9.80
2023-02-18T08:56:29.329Z,10.00
2023-02-18T08:58:56.403Z,10.00
2023-02-18T09:01:23.711Z,10.00
2023-02-18T09:03:50.810Z,10.00
2023-02-18T09:06:17.746Z,9.90
2023-02-18T09:09:10.364Z,9.90
2023-02-18T09:11:37.225Z,9.90
2023-02-18T09:14:04.213Z,9.90
2023-02-18T09:16:31.153Z,9.90
2023-02-18T09:18:58.860Z,9.90
2023-02-18T09:21:27.091Z,9.90
2023-02-18T09:23:53.944Z,9.90
2023-02-18T09:26:23.364Z,9.80
2023-02-18T09:28:51.595Z,9.80
2023-02-18T09:31:22.264Z,9.80
2023-02-18T09:33:52.990Z,9.80
2023-02-18T09:36:20.608Z,9.80
2023-02-18T09:38:47.790Z,9.70
2023-02-18T09:41:36.607Z,9.70
2023-02-18T09:44:09.771Z,9.70
2023-02-18T09:46:39.547Z,9.70
2023-02-18T09:49:26.491Z,9.60
2023-02-18T09:52:01.242Z,9.60
2023-02-18T09:54:28.152Z,9.60
2023-02-18T09:56:55.037Z,9.60
2023-02-18T09:59:26.755Z,9.50
2023-02-18T10:02:03.560Z,9.60
2023-02-18T10:04:39.807Z,9.60
2023-02-18T10:07:11.242Z,9.60
2023-02-18T10:09:41.954Z,9.60
2023-02-18T10:12:18.404Z,9.60
2023-02-18T10:15:01.394Z,9.50
2023-02-18T10:17:32.784Z,9.60
2023-02-18T10:20:08.759Z,9.50
2023-02-18T10:22:53.743Z,9.60
2023-02-18T10:28:09.824Z,9.40
2023-02-18T10:30:42.193Z,9.50
2023-02-18T10:33:20.828Z,9.50
2023-02-18T10:35:57.057Z,9.50
2023-02-18T10:38:49.836Z,9.50
2023-02-18T10:41:26.008Z,9.50
2023-02-18T10:44:11.352Z,9.60
2023-02-18T10:46:48.845Z,9.60
2023-02-18T10:49:37.383Z,9.60
2023-02-18T10:52:06.821Z,9.60
2023-02-18T10:54:51.036Z,9.60
2023-02-18T10:57:21.363Z,9.60
2023-02-18T11:00:14.888Z,9.70
2023-02-18T11:02:42.741Z,9.70
2023-02-18T11:05:28.645Z,9.70
2023-02-18T11:07:58.237Z,9.80
2023-02-18T11:10:30.148Z,9.80
2023-02-18T11:13:03.411Z,9.80
2023-02-18T11:15:30.391Z,9.80
2023-02-18T11:18:11.838Z,9.90
2023-02-18T11:20:39.836Z,9.80
2023-02-18T11:23:06.624Z,9.90
2023-02-18T11:25:39.647Z,9.90
2023-02-18T11:28:26.474Z,9.90
2023-02-18T11:31:01.765Z,9.90
2023-02-18T11:33:44.192Z,10.00
2023-02-18T11:36:23.776Z,9.90
2023-02-18T11:39:00.768Z,10.00
2023-02-18T11:41:40.961Z,10.00
2023-02-18T11:44:22.956Z,10.10
2023-02-18T11:47:13.397Z,10.10
2023-02-18T11:49:43.227Z,10.20
2023-02-18T11:52:13.063Z,10.20
2023-02-18T11:54:39.917Z,10.20
2023-02-18T11:57:12.284Z,10.30
2023-02-18T11:59:40.687Z,10.30
2023-02-18T12:02:10.576Z,10.30
2023-02-18T12:04:52.410Z,10.30
2023-02-18T12:07:41.271Z,10.30
2023-02-18T12:10:19.232Z,10.40
2023-02-18T12:12:50.355Z,10.50
2023-02-18T12:15:24.274Z,10.40
2023-02-18T12:18:05.054Z,10.50
2023-02-18T12:20:59.508Z,10.60
2023-02-18T12:23:35.370Z,10.60
2023-02-18T12:26:22.322Z,10.70
2023-02-18T12:29:28.239Z,10.70
2023-02-18T12:32:13.222Z,10.70
2023-02-18T12:34:54.267Z,10.70
2023-02-18T12:37:57.010Z,10.70
2023-02-18T12:40:46.839Z,10.70
2023-02-18T12:43:19.469Z,10.80
2023-02-18T12:46:28.877Z,10.70
2023-02-18T12:48:55.655Z,10.70
2023-02-18T12:51:54.142Z,10.80
2023-02-18T12:54:47.848Z,10.80
2023-02-18T12:57:20.331Z,10.80
2023-02-18T13:00:08.081Z,10.90
2023-02-18T13:02:56.653Z,10.90
2023-02-18T13:05:42.494Z,11.00
2023-02-18T13:08:28.153Z,11.00
2023-02-18T13:11:01.161Z,11.10
2023-02-18T13:13:34.960Z,11.10
2023-02-18T13:16:11.749Z,11.10
2023-02-18T13:19:01.493Z,11.00
2023-02-18T13:21:29.399Z,11.10
2023-02-18T13:24:03.275Z,11.10
2023-02-18T13:26:33.106Z,11.10
2023-02-18T13:29:18.763Z,11.10
2023-02-18T13:32:08.674Z,11.10
2023-02-18T13:35:04.718Z,11.20
2023-02-18T13:37:44.525Z,11.20
2023-02-18T13:40:19.786Z,11.30
2023-02-18T13:42:46.944Z,11.20
2023-02-18T13:45:34.228Z,11.20
2023-02-18T13:48:01.914Z,11.20
2023-02-18T13:50:40.788Z,11.30
2023-02-18T13:53:07.674Z,11.30
2023-02-18T13:55:51.315Z,11.30
2023-02-18T13:58:36.970Z,11.30
2023-02-18T14:01:13.220Z,11.30
2023-02-18T14:03:42.813Z,11.30
2023-02-18T14:06:23.687Z,11.30
2023-02-18T14:08:51.954Z,11.20
2023-02-18T14:11:22.044Z,11.20
2023-02-18T14:13:50.605Z,11.20
2023-02-18T14:16:20.050Z,11.10
2023-02-18T14:18:46.816Z,11.10
2023-02-18T14:21:13.680Z,11.10
2023-02-18T14:24:00.725Z,11.10
2023-02-18T14:26:52.493Z,11.10
2023-02-18T14:29:30.903Z,11.10
2023-02-18T14:32:10.035Z,11.10
2023-02-18T14:34:36.858Z,11.10
2023-02-18T14:37:25.495Z,11.10
2023-02-18T14:40:10.794Z,11.10
2023-02-18T14:42:55.599Z,11.10
2023-02-18T14:46:00.245Z,11.10
2023-02-18T14:48:44.176Z,11.10
2023-02-18T14:51:17.008Z,11.00
2023-02-18T14:53:45.065Z,11.10
2023-02-18T14:56:16.145Z,11.00
2023-02-18T14:58:47.351Z,11.00
2023-02-18T15:01:36.496Z,11.10
2023-02-18T15:04:04.895Z,11.00
2023-02-18T15:06:34.755Z,11.00
2023-02-18T15:09:29.427Z,10.90
2023-02-18T15:12:00.729Z,10.90
2023-02-18T15:14:40.735Z,10.90
2023-02-18T15:17:16.879Z,10.90
2023-02-18T15:19:57.097Z,10.90
2023-02-18T15:22:26.234Z,10.90
2023-02-18T15:24:55.246Z,10.90
2023-02-18T15:27:27.810Z,10.90
2023-02-18T15:30:19.626Z,10.90
2023-02-18T15:32:55.443Z,10.80
2023-02-18T15:35:29.205Z,10.80
2023-02-18T15:37:58.426Z,10.80
2023-02-18T15:40:31.022Z,10.70
2023-02-18T15:43:00.947Z,10.70
2023-02-18T15:45:37.931Z,10.70
2023-02-18T15:48:05.985Z,10.60
2023-02-18T15:50:38.352Z,10.60
2023-02-18T15:53:17.803Z,10.60
2023-02-18T15:55:49.489Z,10.60
2023-02-18T15:58:19.373Z,10.60
2023-02-18T16:00:51.986Z,10.60
2023-02-18T16:03:24.089Z,10.60
2023-02-18T16:06:07.195Z,10.60
2023-02-18T16:08:34.361Z,10.50
2023-02-18T16:11:04.622Z,10.50
2023-02-18T16:13:32.121Z,10.50
2023-02-18T16:16:01.058Z,10.50
2023-02-18T16:18:39.674Z,10.50
2023-02-18T16:21:20.021Z,10.50
2023-02-18T16:23:58.147Z,10.50
2023-02-18T16:26:40.129Z,10.40
2023-02-18T16:29:26.937Z,10.40
2023-02-18T16:31:54.163Z,10.40
2023-02-18T16:34:21.150Z,10.40
2023-02-18T16:37:06.935Z,10.30
2023-02-18T16:39:35.102Z,10.30
2023-02-18T16:42:02.312Z,10.30
2023-02-18T16:44:29.191Z,10.30
2023-02-18T16:46:57.231Z,10.30
2023-02-18T16:49:24.171Z,10.30
2023-02-18T16:51:51.225Z,10.30
2023-02-18T16:54:18.608Z,10.30
2023-02-18T16:56:45.485Z,10.30
2023-02-18T16:59:12.425Z,10.20
2023-02-18T17:01:44.433Z,10.20
2023-02-18T17:04:14.764Z,10.20
2023-02-18T17:06:42.534Z,10.20
2023-02-18T17:09:16.596Z,10.10
2023-02-18T17:11:48.876Z,10.10
2023-02-18T17:14:18.186Z,10.10
2023-02-18T17:16:46.335Z,10.10
2023-02-18T17:19:13.435Z,10.10
2023-02-18T17:21:40.333Z,10.10
2023-02-18T17:24:07.371Z,10.10
2023-02-18T17:26:34.174Z,10.10
2023-02-18T17:29:01.070Z,10.10
2023-02-18T17:31:35.150Z,10.10
2023-02-18T17:34:08.646Z,10.10
2023-02-18T17:36:35.776Z,10.00
2023-02-18T17:39:05.870Z,10.00
2023-02-18T17:41:32.987Z,10.00
2023-02-18T17:43:59.784Z,10.00
2023-02-18T17:46:28.028Z,10.00
2023-02-18T17:48:54.829Z,10.00
2023-02-18T17:51:27.542Z,10.00
2023-02-18T17:53:54.671Z,10.00
2023-02-18T17:56:22.635Z,9.90
2023-02-18T17:58:49.763Z,10.00
2023-02-18T18:01:18.609Z,9.90
2023-02-18T18:03:45.630Z,9.90
2023-02-18T18:06:20.072Z,9.90
2023-02-18T18:08:48.073Z,9.90
2023-02-18T18:11:19.308Z,9.90
2023-02-18T18:13:47.117Z,9.90
2023-02-18T18:16:16.193Z,9.90
2023-02-18T18:18:43.450Z,9.90
2023-02-18T18:21:23.760Z,9.90
2023-02-18T18:23:51.269Z,9.90
2023-02-18T18:26:18.210Z,9.90
2023-02-18T18:28:45.148Z,9.90
2023-02-18T18:31:15.769Z,9.90
2023-02-18T18:33:43.302Z,9.90
2023-02-18T18:36:10.394Z,9.90
2023-02-18T18:38:37.522Z,9.80
2023-02-18T18:41:04.885Z,9.90
2023-02-18T18:43:33.375Z,9.80
2023-02-18T18:46:00.771Z,9.80
2023-02-18T18:48:27.866Z,9.90
2023-02-18T18:50:55.218Z,9.80
2023-02-18T18:53:28.135Z,9.80
2023-02-18T18:55:57.868Z,9.80
2023-02-18T18:58:25.593Z,9.80
2023-02-18T19:00:55.682Z,9.90
2023-02-18T19:03:24.147Z,9.80
2023-02-18T19:05:51.841Z,9.90
2023-02-18T19:08:20.439Z,9.80
2023-02-18T19:10:50.205Z,9.90
2023-02-18T19:13:21.229Z,9.80
2023-02-18T19:15:49.921Z,9.80
2023-02-18T19:18:18.841Z,9.80
2023-02-18T19:20:47.398Z,9.80
2023-02-18T19:23:14.311Z,9.80
2023-02-18T19:25:41.718Z,9.80
2023-02-18T19:28:10.267Z,9.80
2023-02-18T19:30:37.476Z,9.80
2023-02-18T19:33:06.039Z,9.80
2023-02-18T19:35:33.191Z,9.70
2023-02-18T19:38:01.021Z,9.70
2023-02-18T19:40:30.333Z,9.70
2023-02-18T19:42:57.272Z,9.70
2023-02-18T19:45:24.348Z,9.60
2023-02-18T19:47:56.025Z,9.60
2023-02-18T19:50:24.652Z,9.70
2023-02-18T19:52:53.261Z,9.60
2023-02-18T19:55:20.698Z,9.60
2023-02-18T19:57:47.638Z,9.50
2023-02-18T20:00:16.852Z,9.60
2023-02-18T20:02:44.017Z,9.60
2023-02-18T20:05:12.521Z,9.60
2023-02-18T20:07:41.561Z,9.60
2023-02-18T20:10:12.289Z,9.60
2023-02-18T20:12:39.167Z,9.60
2023-02-18T20:15:06.509Z,9.70
2023-02-18T20:17:33.719Z,9.60
2023-02-18T20:20:00.579Z,9.60
2023-02-18T20:22:27.866Z,9.60
2023-02-18T20:24:54.699Z,9.60
2023-02-18T20:27:21.511Z,9.60
2023-02-18T20:29:48.356Z,9.70
2023-02-18T20:32:18.397Z,9.60
2023-02-18T20:34:45.815Z,9.60
2023-02-18T20:37:12.746Z,9.60
2023-02-18T20:39:39.790Z,9.60
2023-02-18T20:42:15.817Z,9.60
2023-02-18T20:44:44.188Z,9.50
2023-02-18T20:47:13.515Z,9.60
2023-02-18T20:49:41.039Z,9.50
2023-02-18T20:52:09.206Z,9.50
2023-02-18T20:54:36.550Z,9.50
2023-02-18T20:57:04.076Z,9.50
2023-02-18T20:59:33.194Z,9.50
2023-02-18T21:02:00.459Z,9.50
2023-02-18T21:04:27.633Z,9.50
2023-02-18T21:06:55.579Z,9.50
2023-02-18T21:09:22.848Z,9.50
2023-02-18T21:11:49.868Z,9.50
2023-02-18T21:14:17.106Z,9.50
2023-02-18T21:16:44.078Z,9.50
2023-02-18T21:19:14.166Z,9.50
2023-02-18T21:21:42.450Z,9.50
2023-02-18T21:24:09.378Z,9.40
2023-02-18T21:26:37.068Z,9.40
2023-02-18T21:29:07.322Z,9.50
2023-02-18T21:31:39.902Z,9.50
2023-02-18T21:34:09.889Z,9.40
2023-02-18T21:36:36.910Z,9.50
2023-02-18T21:39:07.319Z,9.40
2023-02-18T21:41:35.261Z,9.50
2023-02-18T21:44:02.555Z,9.50
2023-02-18T21:46:32.095Z,9.50
2023-02-18T21:49:02.473Z,9.50
2023-02-18T21:51:49.418Z,9.40
2023-02-18T21:54:17.599Z,9.40
2023-02-18T21:56:44.517Z,9.40
2023-02-18T21:59:11.401Z,9.40
2023-02-18T22:01:38.410Z,9.40
2023-02-18T22:04:05.376Z,9.40
2023-02-18T22:06:32.598Z,9.40
2023-02-18T22:09:04.151Z,9.40
2023-02-18T22:11:31.731Z,9.40
2023-02-18T22:13:58.674Z,9.40
2023-02-18T22:16:28.858Z,9.40
2023-02-18T22:18:56.869Z,9.40
2023-02-18T22:21:26.875Z,9.40
2023-02-18T22:23:54.046Z,9.40
2023-02-18T22:26:21.024Z,9.40
2023-02-18T22:28:52.653Z,9.40
2023-02-18T22:31:19.687Z,9.40
2023-02-18T22:33:49.065Z,9.40
2023-02-18T22:36:15.914Z,9.40
2023-02-18T22:38:42.847Z,9.40
2023-02-18T22:41:12.466Z,9.40
2023-02-18T22:43:40.033Z,9.40
2023-02-18T22:46:18.400Z,9.40
2023-02-18T22:48:45.851Z,9.40
2023-02-18T22:51:19.145Z,9.40
2023-02-18T22:53:46.570Z,9.40
2023-02-18T22:56:16.255Z,9.40
2023-02-18T22:58:44.508Z,9.40
2023-02-18T23:01:36.055Z,9.40
2023-02-18T23:04:08.824Z,9.40
2023-02-18T23:06:37.606Z,9.40
2023-02-18T23:09:06.072Z,9.40
2023-02-18T23:11:33.207Z,9.50
2023-02-18T23:14:18.147Z,9.40
2023-02-18T23:17:05.457Z,9.40
2023-02-18T23:19:33.898Z,9.40
2023-02-18T23:22:00.909Z,9.50
2023-02-18T23:24:28.155Z,9.40
2023-02-18T23:26:55.105Z,9.40
2023-02-18T23:29:21.962Z,9.40
2023-02-18T23:31:48.863Z,9.40
2023-02-18T23:34:16.858Z,9.40
2023-02-18T23:36:44.489Z,9.40
2023-02-18T23:39:13.524Z,9.40
2023-02-18T23:41:40.488Z,9.30
2023-02-18T23:44:10.196Z,9.30
2023-02-18T23:46:37.647Z,9.30
2023-02-18T23:49:05.217Z,9.30
2023-02-18T23:51:32.494Z,9.30
2023-02-18T23:54:03.607Z,9.30
2023-02-18T23:56:30.839Z,9.30
2023-02-18T23:59:01.564Z,9.30
